sensor_id;sensor_type;location;lat;lon;timestamp;P1;durP1;ratioP1;P2;durP2;ratioP2
26536;SDS011;14204;51.262;5.488;2022-07-06T00:00:33;6.07;;;2.80;;
26536;SDS011;14204;51.262;5.488;2022-07-06T00:02:58;4.85;;;2.28;;
26536;SDS011;14204;51.262;5.488;2022-07-06T00:05:24;6.63;;;3.30;;
26536;SDS011;14204;51.262;5.488;2022-07-06T00:07:50;3.67;;;3.38;;
26536;SDS011;14204;51.262;5.488;2022-07-06T00:10:16;4.88;;;3.13;;
26536;SDS011;14204;51.262;5.488;2022-07-06T00:12:42;4.13;;;3.13;;
26536;SDS011;14204;51.262;5.488;2022-07-06T00:15:08;4.85;;;3.33;;
26536;SDS011;14204;51.262;5.488;2022-07-06T00:17:34;5.53;;;3.83;;
26536;SDS011;14204;51.262;5.488;2022-07-06T00:19:59;4.80;;;3.80;;
26536;SDS011;14204;51.262;5.488;2022-07-06T00:22:25;7.82;;;3.83;;
26536;SDS011;14204;51.262;5.488;2022-07-06T00:24:51;8.15;;;4.38;;
26536;SDS011;14204;51.262;5.488;2022-07-06T00:27:16;4.28;;;3.85;;
26536;SDS011;14204;51.262;5.488;2022-07-06T00:29:42;4.95;;;3.83;;
26536;SDS011;14204;51.262;5.488;2022-07-06T00:32:10;9.38;;;4.78;;
26536;SDS011;14204;51.262;5.488;2022-07-06T00:34:36;4.60;;;4.13;;
26536;SDS011;14204;51.262;5.488;2022-07-06T00:37:04;6.70;;;4.07;;
26536;SDS011;14204;51.262;5.488;2022-07-06T00:39:31;5.10;;;4.40;;
26536;SDS011;14204;51.262;5.488;2022-07-06T00:41:58;4.18;;;3.78;;
26536;SDS011;14204;51.262;5.488;2022-07-06T00:44:23;6.43;;;3.88;;
26536;SDS011;14204;51.262;5.488;2022-07-06T00:46:49;6.72;;;4.97;;
26536;SDS011;14204;51.262;5.488;2022-07-06T00:49:15;7.47;;;4.90;;
26536;SDS011;14204;51.262;5.488;2022-07-06T00:51:59;6.72;;;4.82;;
26536;SDS011;14204;51.262;5.488;2022-07-06T00:54:26;8.40;;;5.88;;
26536;SDS011;14204;51.262;5.488;2022-07-06T00:56:55;6.53;;;5.25;;
26536;SDS011;14204;51.262;5.488;2022-07-06T00:59:21;5.78;;;4.43;;
26536;SDS011;14204;51.262;5.488;2022-07-06T01:01:48;8.70;;;5.13;;
26536;SDS011;14204;51.262;5.488;2022-07-06T01:04:14;7.13;;;5.03;;
26536;SDS011;14204;51.262;5.488;2022-07-06T01:06:39;6.45;;;5.15;;
26536;SDS011;14204;51.262;5.488;2022-07-06T01:09:06;10.57;;;5.38;;
26536;SDS011;14204;51.262;5.488;2022-07-06T01:11:32;6.78;;;5.68;;
26536;SDS011;14204;51.262;5.488;2022-07-06T01:13:59;8.27;;;5.63;;
26536;SDS011;14204;51.262;5.488;2022-07-06T01:16:26;9.20;;;5.88;;
26536;SDS011;14204;51.262;5.488;2022-07-06T01:18:52;8.60;;;5.72;;
26536;SDS011;14204;51.262;5.488;2022-07-06T01:21:17;9.18;;;6.00;;
26536;SDS011;14204;51.262;5.488;2022-07-06T01:23:44;9.02;;;5.80;;
26536;SDS011;14204;51.262;5.488;2022-07-06T01:26:12;6.57;;;5.30;;
26536;SDS011;14204;51.262;5.488;2022-07-06T01:28:39;7.32;;;6.07;;
26536;SDS011;14204;51.262;5.488;2022-07-06T01:31:05;9.02;;;6.47;;
26536;SDS011;14204;51.262;5.488;2022-07-06T01:36:03;7.78;;;5.75;;
26536;SDS011;14204;51.262;5.488;2022-07-06T01:38:29;9.43;;;5.65;;
26536;SDS011;14204;51.262;5.488;2022-07-06T01:40:55;9.60;;;6.20;;
26536;SDS011;14204;51.262;5.488;2022-07-06T01:43:21;6.55;;;5.85;;
26536;SDS011;14204;51.262;5.488;2022-07-06T01:45:46;8.98;;;5.53;;
26536;SDS011;14204;51.262;5.488;2022-07-06T01:48:12;9.93;;;5.43;;
26536;SDS011;14204;51.262;5.488;2022-07-06T01:50:37;7.53;;;6.40;;
26536;SDS011;14204;51.262;5.488;2022-07-06T01:53:03;7.55;;;5.60;;
26536;SDS011;14204;51.262;5.488;2022-07-06T01:55:29;7.97;;;5.97;;
26536;SDS011;14204;51.262;5.488;2022-07-06T01:57:54;8.50;;;6.53;;
26536;SDS011;14204;51.262;5.488;2022-07-06T02:00:20;6.53;;;5.80;;
26536;SDS011;14204;51.262;5.488;2022-07-06T02:02:46;7.05;;;6.45;;
26536;SDS011;14204;51.262;5.488;2022-07-06T02:05:11;8.48;;;5.93;;
26536;SDS011;14204;51.262;5.488;2022-07-06T02:07:37;7.05;;;6.35;;
26536;SDS011;14204;51.262;5.488;2022-07-06T02:10:03;9.73;;;6.55;;
26536;SDS011;14204;51.262;5.488;2022-07-06T02:12:29;6.47;;;5.82;;
26536;SDS011;14204;51.262;5.488;2022-07-06T02:14:55;10.85;;;5.50;;
26536;SDS011;14204;51.262;5.488;2022-07-06T02:17:20;9.25;;;5.82;;
26536;SDS011;14204;51.262;5.488;2022-07-06T02:19:46;6.47;;;5.50;;
26536;SDS011;14204;51.262;5.488;2022-07-06T02:22:11;6.97;;;6.15;;
26536;SDS011;14204;51.262;5.488;2022-07-06T02:24:37;11.05;;;7.18;;
26536;SDS011;14204;51.262;5.488;2022-07-06T02:27:03;9.60;;;6.28;;
26536;SDS011;14204;51.262;5.488;2022-07-06T02:29:28;7.82;;;6.35;;
26536;SDS011;14204;51.262;5.488;2022-07-06T02:31:54;9.48;;;5.90;;
26536;SDS011;14204;51.262;5.488;2022-07-06T02:34:20;9.55;;;7.20;;
26536;SDS011;14204;51.262;5.488;2022-07-06T02:36:46;10.07;;;6.75;;
26536;SDS011;14204;51.262;5.488;2022-07-06T02:39:11;8.95;;;6.45;;
26536;SDS011;14204;51.262;5.488;2022-07-06T02:41:37;9.93;;;7.15;;
26536;SDS011;14204;51.262;5.488;2022-07-06T02:44:03;8.27;;;6.65;;
26536;SDS011;14204;51.262;5.488;2022-07-06T02:46:28;7.20;;;6.40;;
26536;SDS011;14204;51.262;5.488;2022-07-06T02:48:54;8.18;;;6.53;;
26536;SDS011;14204;51.262;5.488;2022-07-06T02:51:20;10.38;;;6.78;;
26536;SDS011;14204;51.262;5.488;2022-07-06T02:53:46;7.93;;;6.13;;
26536;SDS011;14204;51.262;5.488;2022-07-06T02:56:11;9.02;;;6.10;;
26536;SDS011;14204;51.262;5.488;2022-07-06T02:58:37;10.52;;;6.75;;
26536;SDS011;14204;51.262;5.488;2022-07-06T03:01:02;12.40;;;7.50;;
26536;SDS011;14204;51.262;5.488;2022-07-06T03:03:28;8.25;;;6.50;;
26536;SDS011;14204;51.262;5.488;2022-07-06T03:05:54;7.68;;;6.45;;
26536;SDS011;14204;51.262;5.488;2022-07-06T03:08:19;7.82;;;6.35;;
26536;SDS011;14204;51.262;5.488;2022-07-06T03:10:45;11.27;;;7.05;;
26536;SDS011;14204;51.262;5.488;2022-07-06T03:13:11;7.68;;;6.57;;
26536;SDS011;14204;51.262;5.488;2022-07-06T03:15:37;8.38;;;6.57;;
26536;SDS011;14204;51.262;5.488;2022-07-06T03:18:02;7.93;;;6.80;;
26536;SDS011;14204;51.262;5.488;2022-07-06T03:20:28;10.32;;;7.13;;
26536;SDS011;14204;51.262;5.488;2022-07-06T03:22:54;11.13;;;7.35;;
26536;SDS011;14204;51.262;5.488;2022-07-06T03:25:19;8.32;;;7.20;;
26536;SDS011;14204;51.262;5.488;2022-07-06T03:27:45;7.88;;;7.07;;
26536;SDS011;14204;51.262;5.488;2022-07-06T03:30:11;8.75;;;7.13;;
26536;SDS011;14204;51.262;5.488;2022-07-06T03:32:37;9.55;;;7.38;;
26536;SDS011;14204;51.262;5.488;2022-07-06T03:35:03;8.50;;;6.55;;
26536;SDS011;14204;51.262;5.488;2022-07-06T03:37:28;8.30;;;7.30;;
26536;SDS011;14204;51.262;5.488;2022-07-06T03:39:54;9.43;;;6.82;;
26536;SDS011;14204;51.262;5.488;2022-07-06T03:42:20;10.43;;;6.63;;
26536;SDS011;14204;51.262;5.488;2022-07-06T03:44:45;13.20;;;7.85;;
26536;SDS011;14204;51.262;5.488;2022-07-06T03:47:11;8.40;;;6.70;;
26536;SDS011;14204;51.262;5.488;2022-07-06T03:49:37;12.32;;;7.07;;
26536;SDS011;14204;51.262;5.488;2022-07-06T03:52:02;9.02;;;6.75;;
26536;SDS011;14204;51.262;5.488;2022-07-06T03:54:28;7.95;;;6.43;;
26536;SDS011;14204;51.262;5.488;2022-07-06T03:56:54;7.15;;;6.45;;
26536;SDS011;14204;51.262;5.488;2022-07-06T03:59:19;9.32;;;6.90;;
26536;SDS011;14204;51.262;5.488;2022-07-06T04:01:45;11.38;;;7.18;;
26536;SDS011;14204;51.262;5.488;2022-07-06T04:04:11;11.50;;;6.97;;
26536;SDS011;14204;51.262;5.488;2022-07-06T04:06:36;9.75;;;6.55;;
26536;SDS011;14204;51.262;5.488;2022-07-06T04:09:02;8.80;;;7.05;;
26536;SDS011;14204;51.262;5.488;2022-07-06T04:11:28;9.98;;;7.32;;
26536;SDS011;14204;51.262;5.488;2022-07-06T04:13:53;12.35;;;7.00;;
26536;SDS011;14204;51.262;5.488;2022-07-06T04:16:19;7.95;;;6.57;;
26536;SDS011;14204;51.262;5.488;2022-07-06T04:18:45;11.63;;;7.10;;
26536;SDS011;14204;51.262;5.488;2022-07-06T04:21:11;8.68;;;6.68;;
26536;SDS011;14204;51.262;5.488;2022-07-06T04:23:36;11.18;;;7.38;;
26536;SDS011;14204;51.262;5.488;2022-07-06T04:26:02;9.73;;;7.07;;
26536;SDS011;14204;51.262;5.488;2022-07-06T04:28:28;10.02;;;7.40;;
26536;SDS011;14204;51.262;5.488;2022-07-06T04:30:53;10.25;;;6.75;;
26536;SDS011;14204;51.262;5.488;2022-07-06T04:33:19;8.55;;;7.38;;
26536;SDS011;14204;51.262;5.488;2022-07-06T04:35:45;8.25;;;6.88;;
26536;SDS011;14204;51.262;5.488;2022-07-06T04:38:11;9.90;;;7.35;;
26536;SDS011;14204;51.262;5.488;2022-07-06T04:40:36;14.48;;;6.63;;
26536;SDS011;14204;51.262;5.488;2022-07-06T04:43:02;8.90;;;6.53;;
26536;SDS011;14204;51.262;5.488;2022-07-06T04:45:28;7.85;;;5.93;;
26536;SDS011;14204;51.262;5.488;2022-07-06T04:47:53;10.27;;;6.93;;
26536;SDS011;14204;51.262;5.488;2022-07-06T04:50:19;8.27;;;6.25;;
26536;SDS011;14204;51.262;5.488;2022-07-06T04:52:45;9.95;;;6.40;;
26536;SDS011;14204;51.262;5.488;2022-07-06T04:55:10;8.48;;;6.57;;
26536;SDS011;14204;51.262;5.488;2022-07-06T04:57:36;9.55;;;5.90;;
26536;SDS011;14204;51.262;5.488;2022-07-06T05:00:02;8.85;;;6.43;;
26536;SDS011;14204;51.262;5.488;2022-07-06T05:02:29;9.23;;;6.35;;
26536;SDS011;14204;51.262;5.488;2022-07-06T05:04:55;6.75;;;5.90;;
26536;SDS011;14204;51.262;5.488;2022-07-06T05:07:20;7.63;;;5.53;;
26536;SDS011;14204;51.262;5.488;2022-07-06T05:09:46;9.05;;;5.80;;
26536;SDS011;14204;51.262;5.488;2022-07-06T05:12:12;6.50;;;5.05;;
26536;SDS011;14204;51.262;5.488;2022-07-06T05:14:38;8.68;;;5.40;;
26536;SDS011;14204;51.262;5.488;2022-07-06T05:17:04;10.18;;;5.50;;
26536;SDS011;14204;51.262;5.488;2022-07-06T05:19:29;10.07;;;5.82;;
26536;SDS011;14204;51.262;5.488;2022-07-06T05:21:55;9.70;;;5.32;;
26536;SDS011;14204;51.262;5.488;2022-07-06T05:24:20;6.38;;;5.40;;
26536;SDS011;14204;51.262;5.488;2022-07-06T05:26:46;6.00;;;4.95;;
26536;SDS011;14204;51.262;5.488;2022-07-06T05:29:12;9.45;;;5.13;;
26536;SDS011;14204;51.262;5.488;2022-07-06T05:31:38;8.60;;;5.40;;
26536;SDS011;14204;51.262;5.488;2022-07-06T05:34:03;7.80;;;4.25;;
26536;SDS011;14204;51.262;5.488;2022-07-06T05:36:29;7.10;;;4.10;;
26536;SDS011;14204;51.262;5.488;2022-07-06T05:38:54;5.47;;;3.90;;
26536;SDS011;14204;51.262;5.488;2022-07-06T05:41:20;8.20;;;3.95;;
26536;SDS011;14204;51.262;5.488;2022-07-06T05:43:46;6.07;;;3.92;;
26536;SDS011;14204;51.262;5.488;2022-07-06T05:46:12;5.13;;;3.70;;
26536;SDS011;14204;51.262;5.488;2022-07-06T05:48:37;6.43;;;3.80;;
26536;SDS011;14204;51.262;5.488;2022-07-06T05:51:21;8.07;;;3.65;;
26536;SDS011;14204;51.262;5.488;2022-07-06T05:53:47;10.95;;;4.63;;
26536;SDS011;14204;51.262;5.488;2022-07-06T05:56:13;5.40;;;3.13;;
26536;SDS011;14204;51.262;5.488;2022-07-06T05:58:39;7.03;;;3.13;;
26536;SDS011;14204;51.262;5.488;2022-07-06T06:01:04;3.75;;;2.80;;
26536;SDS011;14204;51.262;5.488;2022-07-06T06:03:32;4.88;;;3.17;;
26536;SDS011;14204;51.262;5.488;2022-07-06T06:05:58;6.07;;;3.55;;
26536;SDS011;14204;51.262;5.488;2022-07-06T06:08:24;4.57;;;2.65;;
26536;SDS011;14204;51.262;5.488;2022-07-06T06:10:49;6.18;;;2.53;;
26536;SDS011;14204;51.262;5.488;2022-07-06T06:13:15;4.15;;;2.60;;
26536;SDS011;14204;51.262;5.488;2022-07-06T06:15:41;2.75;;;2.00;;
26536;SDS011;14204;51.262;5.488;2022-07-06T06:18:06;4.05;;;2.10;;
26536;SDS011;14204;51.262;5.488;2022-07-06T06:20:32;5.22;;;1.90;;
26536;SDS011;14204;51.262;5.488;2022-07-06T06:22:58;2.75;;;1.83;;
26536;SDS011;14204;51.262;5.488;2022-07-06T06:25:28;4.00;;;2.25;;
26536;SDS011;14204;51.262;5.488;2022-07-06T06:28:05;3.15;;;1.85;;
26536;SDS011;14204;51.262;5.488;2022-07-06T06:30:34;4.10;;;1.52;;
26536;SDS011;14204;51.262;5.488;2022-07-06T06:33:19;6.00;;;2.20;;
26536;SDS011;14204;51.262;5.488;2022-07-06T06:35:46;2.50;;;1.80;;
26536;SDS011;14204;51.262;5.488;2022-07-06T06:38:17;4.30;;;2.00;;
26536;SDS011;14204;51.262;5.488;2022-07-06T06:40:44;3.05;;;1.75;;
26536;SDS011;14204;51.262;5.488;2022-07-06T06:43:10;3.75;;;2.05;;
26536;SDS011;14204;51.262;5.488;2022-07-06T06:45:36;4.85;;;1.70;;
26536;SDS011;14204;51.262;5.488;2022-07-06T06:48:02;4.20;;;2.15;;
26536;SDS011;14204;51.262;5.488;2022-07-06T06:50:28;4.28;;;1.77;;
26536;SDS011;14204;51.262;5.488;2022-07-06T06:52:54;3.75;;;1.60;;
26536;SDS011;14204;51.262;5.488;2022-07-06T06:55:19;3.47;;;1.83;;
26536;SDS011;14204;51.262;5.488;2022-07-06T06:57:45;3.83;;;1.67;;
26536;SDS011;14204;51.262;5.488;2022-07-06T07:00:11;5.57;;;1.70;;
26536;SDS011;14204;51.262;5.488;2022-07-06T07:02:38;3.90;;;1.48;;
26536;SDS011;14204;51.262;5.488;2022-07-06T07:05:04;2.28;;;1.40;;
26536;SDS011;14204;51.262;5.488;2022-07-06T07:07:30;4.82;;;0.90;;
26536;SDS011;14204;51.262;5.488;2022-07-06T07:09:56;2.08;;;1.42;;
26536;SDS011;14204;51.262;5.488;2022-07-06T07:12:22;4.68;;;1.33;;
26536;SDS011;14204;51.262;5.488;2022-07-06T07:14:47;3.58;;;1.02;;
26536;SDS011;14204;51.262;5.488;2022-07-06T07:17:13;1.70;;;1.33;;
26536;SDS011;14204;51.262;5.488;2022-07-06T07:19:40;3.22;;;1.30;;
26536;SDS011;14204;51.262;5.488;2022-07-06T07:22:05;5.78;;;1.48;;
26536;SDS011;14204;51.262;5.488;2022-07-06T07:24:31;3.65;;;1.27;;
26536;SDS011;14204;51.262;5.488;2022-07-06T07:26:57;1.20;;;0.60;;
26536;SDS011;14204;51.262;5.488;2022-07-06T07:29:22;1.20;;;0.93;;
26536;SDS011;14204;51.262;5.488;2022-07-06T07:31:48;3.70;;;1.20;;
26536;SDS011;14204;51.262;5.488;2022-07-06T07:34:14;2.88;;;1.45;;
26536;SDS011;14204;51.262;5.488;2022-07-06T07:36:39;2.85;;;1.15;;
26536;SDS011;14204;51.262;5.488;2022-07-06T07:39:05;1.63;;;1.08;;
26536;SDS011;14204;51.262;5.488;2022-07-06T07:41:30;2.80;;;0.98;;
26536;SDS011;14204;51.262;5.488;2022-07-06T07:43:56;1.40;;;0.88;;
26536;SDS011;14204;51.262;5.488;2022-07-06T07:46:22;3.22;;;1.17;;
26536;SDS011;14204;51.262;5.488;2022-07-06T07:48:48;2.50;;;1.20;;
26536;SDS011;14204;51.262;5.488;2022-07-06T07:51:13;2.65;;;1.05;;
26536;SDS011;14204;51.262;5.488;2022-07-06T07:53:39;3.38;;;1.00;;
26536;SDS011;14204;51.262;5.488;2022-07-06T07:56:04;2.35;;;0.70;;
26536;SDS011;14204;51.262;5.488;2022-07-06T07:58:30;0.75;;;0.50;;
26536;SDS011;14204;51.262;5.488;2022-07-06T08:00:56;2.13;;;0.95;;
26536;SDS011;14204;51.262;5.488;2022-07-06T08:03:22;2.15;;;0.50;;
26536;SDS011;14204;51.262;5.488;2022-07-06T08:05:48;4.68;;;0.93;;
26536;SDS011;14204;51.262;5.488;2022-07-06T08:08:14;1.02;;;0.73;;
26536;SDS011;14204;51.262;5.488;2022-07-06T08:10:40;1.73;;;0.60;;
26536;SDS011;14204;51.262;5.488;2022-07-06T08:13:05;2.70;;;1.05;;
26536;SDS011;14204;51.262;5.488;2022-07-06T08:15:32;0.70;;;0.60;;
26536;SDS011;14204;51.262;5.488;2022-07-06T08:17:59;2.25;;;0.80;;
26536;SDS011;14204;51.262;5.488;2022-07-06T08:20:25;3.45;;;1.10;;
26536;SDS011;14204;51.262;5.488;2022-07-06T08:22:50;2.38;;;0.60;;
26536;SDS011;14204;51.262;5.488;2022-07-06T08:25:16;1.35;;;0.60;;
26536;SDS011;14204;51.262;5.488;2022-07-06T08:27:42;0.73;;;0.60;;
26536;SDS011;14204;51.262;5.488;2022-07-06T08:30:08;1.05;;;0.60;;
26536;SDS011;14204;51.262;5.488;2022-07-06T08:32:39;2.60;;;0.88;;
26536;SDS011;14204;51.262;5.488;2022-07-06T08:35:05;2.85;;;1.20;;
26536;SDS011;14204;51.262;5.488;2022-07-06T08:37:31;3.08;;;0.60;;
26536;SDS011;14204;51.262;5.488;2022-07-06T08:39:57;3.88;;;0.90;;
26536;SDS011;14204;51.262;5.488;2022-07-06T08:42:23;1.38;;;0.60;;
26536;SDS011;14204;51.262;5.488;2022-07-06T08:44:54;2.38;;;0.90;;
26536;SDS011;14204;51.262;5.488;2022-07-06T08:47:23;2.05;;;0.70;;
26536;SDS011;14204;51.262;5.488;2022-07-06T08:49:52;3.10;;;1.00;;
26536;SDS011;14204;51.262;5.488;2022-07-06T08:52:18;2.45;;;0.85;;
26536;SDS011;14204;51.262;5.488;2022-07-06T08:54:44;1.92;;;0.95;;
26536;SDS011;14204;51.262;5.488;2022-07-06T08:57:10;5.00;;;1.23;;
26536;SDS011;14204;51.262;5.488;2022-07-06T08:59:37;2.05;;;0.88;;
26536;SDS011;14204;51.262;5.488;2022-07-06T09:02:04;2.72;;;1.00;;
26536;SDS011;14204;51.262;5.488;2022-07-06T09:04:29;2.20;;;1.10;;
26536;SDS011;14204;51.262;5.488;2022-07-06T09:07:00;1.58;;;1.10;;
26536;SDS011;14204;51.262;5.488;2022-07-06T09:09:26;1.38;;;1.10;;
26536;SDS011;14204;51.262;5.488;2022-07-06T09:11:55;1.00;;;0.90;;
26536;SDS011;14204;51.262;5.488;2022-07-06T09:14:21;2.30;;;1.00;;
26536;SDS011;14204;51.262;5.488;2022-07-06T09:16:51;2.35;;;1.10;;
26536;SDS011;14204;51.262;5.488;2022-07-06T09:19:30;2.65;;;1.30;;
26536;SDS011;14204;51.262;5.488;2022-07-06T09:21:58;1.90;;;1.13;;
26536;SDS011;14204;51.262;5.488;2022-07-06T09:24:24;1.27;;;1.13;;
26536;SDS011;14204;51.262;5.488;2022-07-06T09:26:51;1.77;;;1.00;;
26536;SDS011;14204;51.262;5.488;2022-07-06T09:29:26;4.18;;;1.20;;
26536;SDS011;14204;51.262;5.488;2022-07-06T09:31:59;2.60;;;1.27;;
26536;SDS011;14204;51.262;5.488;2022-07-06T09:34:39;2.60;;;1.40;;
26536;SDS011;14204;51.262;5.488;2022-07-06T09:37:10;1.52;;;1.00;;
26536;SDS011;14204;51.262;5.488;2022-07-06T09:39:36;1.13;;;0.80;;
26536;SDS011;14204;51.262;5.488;2022-07-06T09:42:03;0.88;;;0.70;;
26536;SDS011;14204;51.262;5.488;2022-07-06T09:44:31;1.45;;;1.00;;
26536;SDS011;14204;51.262;5.488;2022-07-06T09:46:59;2.40;;;0.82;;
26536;SDS011;14204;51.262;5.488;2022-07-06T09:49:26;2.27;;;0.90;;
26536;SDS011;14204;51.262;5.488;2022-07-06T09:51:52;3.95;;;0.85;;
26536;SDS011;14204;51.262;5.488;2022-07-06T09:54:20;1.13;;;0.80;;
26536;SDS011;14204;51.262;5.488;2022-07-06T09:56:47;1.75;;;0.70;;
26536;SDS011;14204;51.262;5.488;2022-07-06T09:59:16;2.75;;;1.10;;
26536;SDS011;14204;51.262;5.488;2022-07-06T10:01:43;2.28;;;0.73;;
26536;SDS011;14204;51.262;5.488;2022-07-06T10:04:10;2.90;;;1.00;;
26536;SDS011;14204;51.262;5.488;2022-07-06T10:06:38;3.42;;;0.88;;
26536;SDS011;14204;51.262;5.488;2022-07-06T10:09:07;1.05;;;0.75;;
26536;SDS011;14204;51.262;5.488;2022-07-06T10:11:37;1.85;;;1.00;;
26536;SDS011;14204;51.262;5.488;2022-07-06T10:14:03;0.98;;;0.80;;
26536;SDS011;14204;51.262;5.488;2022-07-06T10:16:31;0.88;;;0.70;;
26536;SDS011;14204;51.262;5.488;2022-07-06T10:19:01;1.30;;;0.60;;
26536;SDS011;14204;51.262;5.488;2022-07-06T10:21:29;2.22;;;0.60;;
26536;SDS011;14204;51.262;5.488;2022-07-06T10:23:55;2.20;;;0.80;;
26536;SDS011;14204;51.262;5.488;2022-07-06T10:26:25;2.25;;;0.80;;
26536;SDS011;14204;51.262;5.488;2022-07-06T10:28:51;1.45;;;0.77;;
26536;SDS011;14204;51.262;5.488;2022-07-06T10:31:17;1.77;;;0.70;;
26536;SDS011;14204;51.262;5.488;2022-07-06T10:33:44;1.83;;;1.00;;
26536;SDS011;14204;51.262;5.488;2022-07-06T10:36:11;1.58;;;0.90;;
26536;SDS011;14204;51.262;5.488;2022-07-06T10:38:37;1.20;;;0.70;;
26536;SDS011;14204;51.262;5.488;2022-07-06T10:41:04;1.90;;;1.10;;
26536;SDS011;14204;51.262;5.488;2022-07-06T10:43:32;1.30;;;0.90;;
26536;SDS011;14204;51.262;5.488;2022-07-06T10:45:59;3.10;;;0.85;;
26536;SDS011;14204;51.262;5.488;2022-07-06T10:48:43;1.25;;;0.70;;
26536;SDS011;14204;51.262;5.488;2022-07-06T10:51:10;1.48;;;1.00;;
26536;SDS011;14204;51.262;5.488;2022-07-06T10:53:38;3.20;;;0.60;;
26536;SDS011;14204;51.262;5.488;2022-07-06T10:56:06;1.08;;;0.75;;
26536;SDS011;14204;51.262;5.488;2022-07-06T10:58:49;1.02;;;0.80;;
26536;SDS011;14204;51.262;5.488;2022-07-06T11:01:17;2.97;;;0.80;;
26536;SDS011;14204;51.262;5.488;2022-07-06T11:03:47;2.15;;;0.70;;
26536;SDS011;14204;51.262;5.488;2022-07-06T11:13:54;2.70;;;0.73;;
26536;SDS011;14204;51.262;5.488;2022-07-06T11:16:24;1.90;;;0.88;;
26536;SDS011;14204;51.262;5.488;2022-07-06T11:19:02;1.17;;;0.57;;
26536;SDS011;14204;51.262;5.488;2022-07-06T11:21:46;3.75;;;1.00;;
26536;SDS011;14204;51.262;5.488;2022-07-06T11:24:15;2.33;;;0.70;;
26536;SDS011;14204;51.262;5.488;2022-07-06T11:26:42;1.00;;;0.70;;
26536;SDS011;14204;51.262;5.488;2022-07-06T11:29:10;2.28;;;0.82;;
26536;SDS011;14204;51.262;5.488;2022-07-06T11:31:37;2.28;;;0.85;;
26536;SDS011;14204;51.262;5.488;2022-07-06T11:34:07;3.35;;;1.80;;
26536;SDS011;14204;51.262;5.488;2022-07-06T11:36:35;2.28;;;0.88;;
26536;SDS011;14204;51.262;5.488;2022-07-06T11:39:01;1.35;;;0.90;;
26536;SDS011;14204;51.262;5.488;2022-07-06T11:41:27;3.55;;;1.10;;
26536;SDS011;14204;51.262;5.488;2022-07-06T11:43:52;0.90;;;0.57;;
26536;SDS011;14204;51.262;5.488;2022-07-06T11:46:22;1.30;;;0.60;;
26536;SDS011;14204;51.262;5.488;2022-07-06T11:48:50;1.55;;;0.90;;
26536;SDS011;14204;51.262;5.488;2022-07-06T11:51:20;2.20;;;0.93;;
26536;SDS011;14204;51.262;5.488;2022-07-06T11:53:46;2.40;;;0.95;;
26536;SDS011;14204;51.262;5.488;2022-07-06T11:56:16;2.13;;;0.80;;
26536;SDS011;14204;51.262;5.488;2022-07-06T11:58:50;2.80;;;1.13;;
26536;SDS011;14204;51.262;5.488;2022-07-06T12:01:17;2.65;;;1.40;;
26536;SDS011;14204;51.262;5.488;2022-07-06T12:03:43;1.98;;;1.20;;
26536;SDS011;14204;51.262;5.488;2022-07-06T12:06:21;2.75;;;1.35;;
26536;SDS011;14204;51.262;5.488;2022-07-06T12:08:49;2.72;;;0.90;;
26536;SDS011;14204;51.262;5.488;2022-07-06T12:11:19;2.42;;;1.10;;
26536;SDS011;14204;51.262;5.488;2022-07-06T12:13:50;0.98;;;0.70;;
26536;SDS011;14204;51.262;5.488;2022-07-06T12:16:17;1.42;;;1.15;;
26536;SDS011;14204;51.262;5.488;2022-07-06T12:18:43;2.42;;;1.30;;
26536;SDS011;14204;51.262;5.488;2022-07-06T12:21:12;0.82;;;0.82;;
26536;SDS011;14204;51.262;5.488;2022-07-06T12:23:45;2.00;;;1.05;;
26536;SDS011;14204;51.262;5.488;2022-07-06T12:26:17;1.35;;;0.65;;
26536;SDS011;14204;51.262;5.488;2022-07-06T12:28:44;2.22;;;0.90;;
26536;SDS011;14204;51.262;5.488;2022-07-06T12:31:11;2.70;;;0.80;;
26536;SDS011;14204;51.262;5.488;2022-07-06T12:33:57;3.47;;;1.20;;
26536;SDS011;14204;51.262;5.488;2022-07-06T12:36:23;2.25;;;0.93;;
26536;SDS011;14204;51.262;5.488;2022-07-06T12:38:48;2.28;;;0.80;;
26536;SDS011;14204;51.262;5.488;2022-07-06T12:41:27;1.73;;;1.00;;
26536;SDS011;14204;51.262;5.488;2022-07-06T12:44:02;2.35;;;0.88;;
26536;SDS011;14204;51.262;5.488;2022-07-06T12:46:33;3.78;;;0.82;;
26536;SDS011;14204;51.262;5.488;2022-07-06T12:49:02;1.27;;;0.98;;
26536;SDS011;14204;51.262;5.488;2022-07-06T12:54:26;1.38;;;0.70;;
26536;SDS011;14204;51.262;5.488;2022-07-06T12:56:58;1.13;;;0.68;;
26536;SDS011;14204;51.262;5.488;2022-07-06T13:01:53;2.17;;;0.70;;
26536;SDS011;14204;51.262;5.488;2022-07-06T13:04:25;1.10;;;0.82;;
26536;SDS011;14204;51.262;5.488;2022-07-06T13:06:52;1.33;;;0.93;;
26536;SDS011;14204;51.262;5.488;2022-07-06T13:09:18;3.08;;;1.02;;
26536;SDS011;14204;51.262;5.488;2022-07-06T13:11:45;2.33;;;0.55;;
26536;SDS011;14204;51.262;5.488;2022-07-06T13:14:11;1.65;;;0.82;;
26536;SDS011;14204;51.262;5.488;2022-07-06T13:16:37;2.88;;;0.90;;
26536;SDS011;14204;51.262;5.488;2022-07-06T13:19:03;3.08;;;0.90;;
26536;SDS011;14204;51.262;5.488;2022-07-06T13:21:29;2.05;;;0.80;;
26536;SDS011;14204;51.262;5.488;2022-07-06T13:23:54;3.20;;;0.80;;
26536;SDS011;14204;51.262;5.488;2022-07-06T13:26:20;1.58;;;0.90;;
26536;SDS011;14204;51.262;5.488;2022-07-06T13:28:46;2.35;;;0.90;;
26536;SDS011;14204;51.262;5.488;2022-07-06T13:31:11;5.18;;;1.20;;
26536;SDS011;14204;51.262;5.488;2022-07-06T13:33:37;4.28;;;0.70;;
26536;SDS011;14204;51.262;5.488;2022-07-06T13:36:03;1.92;;;0.70;;
26536;SDS011;14204;51.262;5.488;2022-07-06T13:38:29;3.08;;;1.00;;
26536;SDS011;14204;51.262;5.488;2022-07-06T13:40:54;1.13;;;0.63;;
26536;SDS011;14204;51.262;5.488;2022-07-06T13:43:20;4.80;;;1.10;;
26536;SDS011;14204;51.262;5.488;2022-07-06T13:45:46;4.18;;;0.60;;
26536;SDS011;14204;51.262;5.488;2022-07-06T13:48:12;3.75;;;0.90;;
26536;SDS011;14204;51.262;5.488;2022-07-06T13:50:38;2.13;;;0.70;;
26536;SDS011;14204;51.262;5.488;2022-07-06T13:53:04;1.70;;;1.05;;
26536;SDS011;14204;51.262;5.488;2022-07-06T13:55:30;1.48;;;0.50;;
26536;SDS011;14204;51.262;5.488;2022-07-06T13:57:56;0.77;;;0.40;;
26536;SDS011;14204;51.262;5.488;2022-07-06T14:00:22;3.92;;;0.95;;
26536;SDS011;14204;51.262;5.488;2022-07-06T14:02:47;3.78;;;0.80;;
26536;SDS011;14204;51.262;5.488;2022-07-06T14:05:13;2.60;;;0.90;;
26536;SDS011;14204;51.262;5.488;2022-07-06T14:07:39;1.92;;;0.80;;
26536;SDS011;14204;51.262;5.488;2022-07-06T14:10:05;1.42;;;0.90;;
26536;SDS011;14204;51.262;5.488;2022-07-06T14:12:30;2.38;;;0.65;;
26536;SDS011;14204;51.262;5.488;2022-07-06T14:14:56;1.85;;;0.80;;
26536;SDS011;14204;51.262;5.488;2022-07-06T14:17:22;1.20;;;0.50;;
26536;SDS011;14204;51.262;5.488;2022-07-06T14:19:48;2.83;;;1.00;;
26536;SDS011;14204;51.262;5.488;2022-07-06T14:22:14;3.25;;;0.93;;
26536;SDS011;14204;51.262;5.488;2022-07-06T14:24:40;2.90;;;0.90;;
26536;SDS011;14204;51.262;5.488;2022-07-06T14:27:06;4.63;;;0.90;;
26536;SDS011;14204;51.262;5.488;2022-07-06T14:29:31;4.50;;;0.82;;
26536;SDS011;14204;51.262;5.488;2022-07-06T14:31:57;1.92;;;0.90;;
26536;SDS011;14204;51.262;5.488;2022-07-06T14:34:23;2.85;;;1.08;;
26536;SDS011;14204;51.262;5.488;2022-07-06T14:36:49;2.17;;;1.02;;
26536;SDS011;14204;51.262;5.488;2022-07-06T14:39:15;2.55;;;0.98;;
26536;SDS011;14204;51.262;5.488;2022-07-06T14:41:41;4.30;;;1.08;;
26536;SDS011;14204;51.262;5.488;2022-07-06T14:44:07;3.13;;;1.00;;
26536;SDS011;14204;51.262;5.488;2022-07-06T14:46:32;1.20;;;0.93;;
26536;SDS011;14204;51.262;5.488;2022-07-06T14:48:59;1.20;;;1.10;;
26536;SDS011;14204;51.262;5.488;2022-07-06T14:51:25;2.83;;;1.40;;
26536;SDS011;14204;51.262;5.488;2022-07-06T14:53:51;2.53;;;1.00;;
26536;SDS011;14204;51.262;5.488;2022-07-06T14:56:17;2.65;;;1.02;;
26536;SDS011;14204;51.262;5.488;2022-07-06T14:58:42;2.10;;;1.08;;
26536;SDS011;14204;51.262;5.488;2022-07-06T15:01:08;2.40;;;1.15;;